Terminal Aerodrome Forecast
Issued by NWS

Home | Current Version | Previous Version | Text Only | Print | Product List | Glossary On
Versions: 1 2 3 4 5 6 7 8 9 10 11 12 13 14 15 16 17 18 19 20
000
FTUS43 KDLH 232334
TAFHIB
TAF
KHIB 232334Z 2400/2424 15007KT P6SM SCT020 BKN120
      TEMPO 2400/2402 BKN020
     FM240200 14005KT P6SM BKN020
     FM240500 18003KT 6SM BR SCT007 OVC015
      TEMPO 2405/2409 4SM -TSRA BR BKN007CB
     FM240900 19002KT 2SM BR VCSH SCT004 OVC007
     FM241400 29008KT P6SM SCT015
     FM241700 30011G19KT P6SM SCT025 BKN100=

USA.gov is the U.S. government's official web portal to all federal, state and local government web resources and services.